sensor_id;sensor_type;location;lat;lon;timestamp;P1;durP1;ratioP1;P2;durP2;ratioP2
12665;SDS011;58531;59.050;17.416;2024-02-21T00:02:25;20.53;;;8.00;;
12665;SDS011;58531;59.050;17.416;2024-02-21T00:04:52;16.40;;;7.50;;
12665;SDS011;58531;59.050;17.416;2024-02-21T00:07:19;17.83;;;7.43;;
12665;SDS011;58531;59.050;17.416;2024-02-21T00:09:47;22.00;;;7.33;;
12665;SDS011;58531;59.050;17.416;2024-02-21T00:12:14;29.57;;;8.20;;
12665;SDS011;58531;59.050;17.416;2024-02-21T00:14:41;30.60;;;9.03;;
12665;SDS011;58531;59.050;17.416;2024-02-21T00:17:08;37.00;;;10.90;;
12665;SDS011;58531;59.050;17.416;2024-02-21T00:19:35;45.57;;;11.63;;
12665;SDS011;58531;59.050;17.416;2024-02-21T00:22:02;25.27;;;8.20;;
12665;SDS011;58531;59.050;17.416;2024-02-21T00:24:29;54.00;;;10.83;;
12665;SDS011;58531;59.050;17.416;2024-02-21T00:26:58;34.80;;;10.00;;
12665;SDS011;58531;59.050;17.416;2024-02-21T00:29:25;110.03;;;14.70;;
12665;SDS011;58531;59.050;17.416;2024-02-21T00:31:52;64.27;;;11.70;;
12665;SDS011;58531;59.050;17.416;2024-02-21T00:34:19;43.00;;;9.40;;
12665;SDS011;58531;59.050;17.416;2024-02-21T00:36:46;26.90;;;10.00;;
12665;SDS011;58531;59.050;17.416;2024-02-21T00:39:13;28.13;;;9.97;;
12665;SDS011;58531;59.050;17.416;2024-02-21T00:41:39;39.33;;;10.57;;
12665;SDS011;58531;59.050;17.416;2024-02-21T00:44:08;47.30;;;10.57;;
12665;SDS011;58531;59.050;17.416;2024-02-21T00:46:35;109.23;;;15.37;;
12665;SDS011;58531;59.050;17.416;2024-02-21T00:49:03;96.73;;;15.03;;
12665;SDS011;58531;59.050;17.416;2024-02-21T00:51:30;27.13;;;9.10;;
12665;SDS011;58531;59.050;17.416;2024-02-21T00:53:57;33.17;;;10.87;;
12665;SDS011;58531;59.050;17.416;2024-02-21T00:56:24;33.83;;;10.73;;
12665;SDS011;58531;59.050;17.416;2024-02-21T00:58:51;22.67;;;9.17;;
12665;SDS011;58531;59.050;17.416;2024-02-21T01:01:23;82.40;;;13.40;;
12665;SDS011;58531;59.050;17.416;2024-02-21T01:03:51;33.73;;;10.50;;
12665;SDS011;58531;59.050;17.416;2024-02-21T01:06:18;37.13;;;10.73;;
12665;SDS011;58531;59.050;17.416;2024-02-21T01:08:45;79.23;;;12.33;;
12665;SDS011;58531;59.050;17.416;2024-02-21T01:11:13;94.47;;;14.53;;
12665;SDS011;58531;59.050;17.416;2024-02-21T01:13:40;69.80;;;13.43;;
12665;SDS011;58531;59.050;17.416;2024-02-21T01:16:06;42.47;;;10.20;;
12665;SDS011;58531;59.050;17.416;2024-02-21T01:18:36;38.20;;;9.17;;
12665;SDS011;58531;59.050;17.416;2024-02-21T01:21:04;85.87;;;14.97;;
12665;SDS011;58531;59.050;17.416;2024-02-21T01:23:34;45.97;;;10.90;;
12665;SDS011;58531;59.050;17.416;2024-02-21T01:26:02;48.60;;;10.17;;
12665;SDS011;58531;59.050;17.416;2024-02-21T01:28:29;46.40;;;10.37;;
12665;SDS011;58531;59.050;17.416;2024-02-21T01:30:56;41.37;;;10.63;;
12665;SDS011;58531;59.050;17.416;2024-02-21T01:33:28;107.53;;;14.43;;
12665;SDS011;58531;59.050;17.416;2024-02-21T01:36:01;53.47;;;11.27;;
12665;SDS011;58531;59.050;17.416;2024-02-21T01:38:28;41.37;;;10.23;;
12665;SDS011;58531;59.050;17.416;2024-02-21T01:40:55;29.30;;;9.23;;
12665;SDS011;58531;59.050;17.416;2024-02-21T01:43:22;18.57;;;7.73;;
12665;SDS011;58531;59.050;17.416;2024-02-21T01:45:50;26.17;;;7.87;;
12665;SDS011;58531;59.050;17.416;2024-02-21T01:48:18;17.47;;;7.93;;
12665;SDS011;58531;59.050;17.416;2024-02-21T01:50:46;48.47;;;10.57;;
12665;SDS011;58531;59.050;17.416;2024-02-21T01:53:16;30.20;;;9.07;;
12665;SDS011;58531;59.050;17.416;2024-02-21T01:55:44;36.50;;;9.13;;
12665;SDS011;58531;59.050;17.416;2024-02-21T01:58:12;49.20;;;9.80;;
12665;SDS011;58531;59.050;17.416;2024-02-21T02:00:40;41.10;;;9.07;;
12665;SDS011;58531;59.050;17.416;2024-02-21T02:03:09;42.97;;;7.60;;
12665;SDS011;58531;59.050;17.416;2024-02-21T02:05:42;13.83;;;5.80;;
12665;SDS011;58531;59.050;17.416;2024-02-21T02:08:10;17.03;;;6.07;;
12665;SDS011;58531;59.050;17.416;2024-02-21T02:10:38;33.67;;;7.83;;
12665;SDS011;58531;59.050;17.416;2024-02-21T02:13:06;10.60;;;5.37;;
12665;SDS011;58531;59.050;17.416;2024-02-21T02:15:39;21.47;;;5.87;;
12665;SDS011;58531;59.050;17.416;2024-02-21T02:18:10;13.43;;;5.50;;
12665;SDS011;58531;59.050;17.416;2024-02-21T02:20:37;11.27;;;5.50;;
12665;SDS011;58531;59.050;17.416;2024-02-21T02:23:07;17.27;;;5.00;;
12665;SDS011;58531;59.050;17.416;2024-02-21T02:25:38;19.13;;;6.57;;
12665;SDS011;58531;59.050;17.416;2024-02-21T02:28:08;18.03;;;5.97;;
12665;SDS011;58531;59.050;17.416;2024-02-21T02:30:35;27.37;;;6.37;;
12665;SDS011;58531;59.050;17.416;2024-02-21T02:33:02;16.80;;;5.07;;
12665;SDS011;58531;59.050;17.416;2024-02-21T02:35:30;8.60;;;4.53;;
12665;SDS011;58531;59.050;17.416;2024-02-21T02:37:57;21.13;;;5.67;;
12665;SDS011;58531;59.050;17.416;2024-02-21T02:40:24;41.80;;;8.50;;
12665;SDS011;58531;59.050;17.416;2024-02-21T02:42:52;24.17;;;5.20;;
12665;SDS011;58531;59.050;17.416;2024-02-21T02:45:20;13.83;;;5.33;;
12665;SDS011;58531;59.050;17.416;2024-02-21T02:47:48;23.53;;;6.00;;
12665;SDS011;58531;59.050;17.416;2024-02-21T02:50:16;14.53;;;5.37;;
12665;SDS011;58531;59.050;17.416;2024-02-21T02:52:42;34.20;;;6.43;;
12665;SDS011;58531;59.050;17.416;2024-02-21T02:55:10;20.83;;;5.23;;
12665;SDS011;58531;59.050;17.416;2024-02-21T02:57:36;12.47;;;5.10;;
12665;SDS011;58531;59.050;17.416;2024-02-21T03:00:10;21.43;;;5.50;;
12665;SDS011;58531;59.050;17.416;2024-02-21T03:02:38;23.33;;;5.27;;
12665;SDS011;58531;59.050;17.416;2024-02-21T03:05:11;19.90;;;6.23;;
12665;SDS011;58531;59.050;17.416;2024-02-21T03:07:39;17.67;;;5.27;;
12665;SDS011;58531;59.050;17.416;2024-02-21T03:10:07;23.23;;;5.87;;
12665;SDS011;58531;59.050;17.416;2024-02-21T03:12:34;11.97;;;5.03;;
12665;SDS011;58531;59.050;17.416;2024-02-21T03:15:01;24.53;;;6.57;;
12665;SDS011;58531;59.050;17.416;2024-02-21T03:17:30;12.00;;;5.07;;
12665;SDS011;58531;59.050;17.416;2024-02-21T03:19:57;9.03;;;5.10;;
12665;SDS011;58531;59.050;17.416;2024-02-21T03:22:25;17.03;;;4.90;;
12665;SDS011;58531;59.050;17.416;2024-02-21T03:24:52;10.87;;;4.47;;
12665;SDS011;58531;59.050;17.416;2024-02-21T03:27:19;15.60;;;4.90;;
12665;SDS011;58531;59.050;17.416;2024-02-21T03:29:46;12.47;;;4.70;;
12665;SDS011;58531;59.050;17.416;2024-02-21T03:32:12;12.07;;;5.10;;
12665;SDS011;58531;59.050;17.416;2024-02-21T03:34:41;13.63;;;4.70;;
12665;SDS011;58531;59.050;17.416;2024-02-21T03:37:08;13.47;;;4.77;;
12665;SDS011;58531;59.050;17.416;2024-02-21T03:39:34;10.17;;;4.43;;
12665;SDS011;58531;59.050;17.416;2024-02-21T03:42:02;14.27;;;5.37;;
12665;SDS011;58531;59.050;17.416;2024-02-21T03:44:30;16.57;;;4.67;;
12665;SDS011;58531;59.050;17.416;2024-02-21T03:46:57;12.90;;;4.77;;
12665;SDS011;58531;59.050;17.416;2024-02-21T03:49:24;12.70;;;4.43;;
12665;SDS011;58531;59.050;17.416;2024-02-21T03:51:52;16.60;;;5.00;;
12665;SDS011;58531;59.050;17.416;2024-02-21T03:54:19;13.67;;;4.80;;
12665;SDS011;58531;59.050;17.416;2024-02-21T03:56:46;9.40;;;4.43;;
12665;SDS011;58531;59.050;17.416;2024-02-21T03:59:14;10.30;;;4.40;;
12665;SDS011;58531;59.050;17.416;2024-02-21T04:01:40;16.13;;;5.07;;
12665;SDS011;58531;59.050;17.416;2024-02-21T04:04:07;17.73;;;5.47;;
12665;SDS011;58531;59.050;17.416;2024-02-21T04:06:34;33.73;;;6.23;;
12665;SDS011;58531;59.050;17.416;2024-02-21T04:09:03;16.97;;;4.83;;
12665;SDS011;58531;59.050;17.416;2024-02-21T04:11:30;37.87;;;7.07;;
12665;SDS011;58531;59.050;17.416;2024-02-21T04:13:56;20.00;;;5.77;;
12665;SDS011;58531;59.050;17.416;2024-02-21T04:16:23;22.47;;;6.03;;
12665;SDS011;58531;59.050;17.416;2024-02-21T04:18:50;13.03;;;5.17;;
12665;SDS011;58531;59.050;17.416;2024-02-21T04:21:17;49.70;;;9.43;;
12665;SDS011;58531;59.050;17.416;2024-02-21T04:23:44;35.33;;;7.03;;
12665;SDS011;58531;59.050;17.416;2024-02-21T04:26:12;10.80;;;4.57;;
12665;SDS011;58531;59.050;17.416;2024-02-21T04:28:39;12.27;;;4.23;;
12665;SDS011;58531;59.050;17.416;2024-02-21T04:31:06;33.97;;;7.63;;
12665;SDS011;58531;59.050;17.416;2024-02-21T04:33:33;14.43;;;5.30;;
12665;SDS011;58531;59.050;17.416;2024-02-21T04:35:59;26.77;;;5.70;;
12665;SDS011;58531;59.050;17.416;2024-02-21T04:38:27;38.00;;;6.90;;
12665;SDS011;58531;59.050;17.416;2024-02-21T04:40:54;17.50;;;5.73;;
12665;SDS011;58531;59.050;17.416;2024-02-21T04:43:24;14.00;;;4.90;;
12665;SDS011;58531;59.050;17.416;2024-02-21T04:45:51;18.87;;;5.93;;
12665;SDS011;58531;59.050;17.416;2024-02-21T04:48:19;18.57;;;4.90;;
12665;SDS011;58531;59.050;17.416;2024-02-21T04:50:46;39.33;;;8.13;;
12665;SDS011;58531;59.050;17.416;2024-02-21T04:53:13;55.20;;;8.40;;
12665;SDS011;58531;59.050;17.416;2024-02-21T04:55:40;52.87;;;9.23;;
12665;SDS011;58531;59.050;17.416;2024-02-21T04:58:07;23.83;;;6.57;;
12665;SDS011;58531;59.050;17.416;2024-02-21T05:00:35;32.60;;;6.60;;
12665;SDS011;58531;59.050;17.416;2024-02-21T05:03:02;44.13;;;7.97;;
12665;SDS011;58531;59.050;17.416;2024-02-21T05:05:32;78.33;;;11.53;;
12665;SDS011;58531;59.050;17.416;2024-02-21T05:07:58;37.57;;;7.53;;
12665;SDS011;58531;59.050;17.416;2024-02-21T05:10:25;215.57;;;21.60;;
12665;SDS011;58531;59.050;17.416;2024-02-21T05:12:52;141.27;;;16.67;;
12665;SDS011;58531;59.050;17.416;2024-02-21T05:15:19;92.07;;;11.60;;
12665;SDS011;58531;59.050;17.416;2024-02-21T05:17:47;117.00;;;13.33;;
12665;SDS011;58531;59.050;17.416;2024-02-21T05:20:14;333.17;;;32.43;;
12665;SDS011;58531;59.050;17.416;2024-02-21T05:22:41;233.23;;;24.23;;
12665;SDS011;58531;59.050;17.416;2024-02-21T05:25:09;137.33;;;15.17;;
12665;SDS011;58531;59.050;17.416;2024-02-21T05:27:36;228.03;;;24.67;;
12665;SDS011;58531;59.050;17.416;2024-02-21T05:30:04;114.07;;;14.83;;
12665;SDS011;58531;59.050;17.416;2024-02-21T05:32:32;117.67;;;15.00;;
12665;SDS011;58531;59.050;17.416;2024-02-21T05:35:01;115.40;;;14.67;;
12665;SDS011;58531;59.050;17.416;2024-02-21T05:37:27;54.60;;;9.70;;
12665;SDS011;58531;59.050;17.416;2024-02-21T05:39:57;198.07;;;20.97;;
12665;SDS011;58531;59.050;17.416;2024-02-21T05:42:24;286.73;;;25.90;;
12665;SDS011;58531;59.050;17.416;2024-02-21T05:44:51;62.80;;;10.03;;
12665;SDS011;58531;59.050;17.416;2024-02-21T05:47:20;189.30;;;18.57;;
12665;SDS011;58531;59.050;17.416;2024-02-21T05:49:47;147.40;;;18.83;;
12665;SDS011;58531;59.050;17.416;2024-02-21T05:52:15;51.97;;;8.90;;
12665;SDS011;58531;59.050;17.416;2024-02-21T05:54:42;64.70;;;11.30;;
12665;SDS011;58531;59.050;17.416;2024-02-21T05:57:09;104.70;;;13.13;;
12665;SDS011;58531;59.050;17.416;2024-02-21T05:59:37;33.10;;;7.50;;
12665;SDS011;58531;59.050;17.416;2024-02-21T06:02:07;40.67;;;8.77;;
12665;SDS011;58531;59.050;17.416;2024-02-21T06:04:35;149.07;;;16.07;;
12665;SDS011;58531;59.050;17.416;2024-02-21T06:07:02;47.07;;;8.77;;
12665;SDS011;58531;59.050;17.416;2024-02-21T06:09:31;30.07;;;8.23;;
12665;SDS011;58531;59.050;17.416;2024-02-21T06:11:58;37.63;;;7.93;;
12665;SDS011;58531;59.050;17.416;2024-02-21T06:14:25;181.40;;;23.97;;
12665;SDS011;58531;59.050;17.416;2024-02-21T06:16:51;32.67;;;8.57;;
12665;SDS011;58531;59.050;17.416;2024-02-21T06:19:18;40.33;;;7.87;;
12665;SDS011;58531;59.050;17.416;2024-02-21T06:21:45;41.83;;;9.20;;
12665;SDS011;58531;59.050;17.416;2024-02-21T06:24:12;26.63;;;8.70;;
12665;SDS011;58531;59.050;17.416;2024-02-21T06:26:40;45.37;;;10.23;;
12665;SDS011;58531;59.050;17.416;2024-02-21T06:29:07;88.17;;;14.30;;
12665;SDS011;58531;59.050;17.416;2024-02-21T06:31:34;123.40;;;16.70;;
12665;SDS011;58531;59.050;17.416;2024-02-21T06:34:01;75.90;;;12.90;;
12665;SDS011;58531;59.050;17.416;2024-02-21T06:36:29;139.87;;;19.13;;
12665;SDS011;58531;59.050;17.416;2024-02-21T06:38:56;55.00;;;10.37;;
12665;SDS011;58531;59.050;17.416;2024-02-21T06:41:23;81.50;;;13.00;;
12665;SDS011;58531;59.050;17.416;2024-02-21T06:43:51;139.40;;;19.37;;
12665;SDS011;58531;59.050;17.416;2024-02-21T06:46:24;182.87;;;20.80;;
12665;SDS011;58531;59.050;17.416;2024-02-21T06:48:51;114.10;;;14.97;;
12665;SDS011;58531;59.050;17.416;2024-02-21T06:51:18;190.37;;;21.83;;
12665;SDS011;58531;59.050;17.416;2024-02-21T06:53:45;94.17;;;13.10;;
12665;SDS011;58531;59.050;17.416;2024-02-21T06:56:12;67.07;;;12.27;;
12665;SDS011;58531;59.050;17.416;2024-02-21T06:58:39;27.93;;;7.23;;
12665;SDS011;58531;59.050;17.416;2024-02-21T07:01:08;45.77;;;9.30;;
12665;SDS011;58531;59.050;17.416;2024-02-21T07:03:35;79.60;;;12.33;;
12665;SDS011;58531;59.050;17.416;2024-02-21T07:06:02;42.23;;;8.93;;
12665;SDS011;58531;59.050;17.416;2024-02-21T07:08:29;55.50;;;9.20;;
12665;SDS011;58531;59.050;17.416;2024-02-21T07:10:56;60.50;;;10.17;;
12665;SDS011;58531;59.050;17.416;2024-02-21T07:13:23;114.17;;;14.80;;
12665;SDS011;58531;59.050;17.416;2024-02-21T07:15:50;78.70;;;11.53;;
12665;SDS011;58531;59.050;17.416;2024-02-21T07:18:18;129.27;;;13.57;;
12665;SDS011;58531;59.050;17.416;2024-02-21T07:20:45;143.37;;;16.33;;
12665;SDS011;58531;59.050;17.416;2024-02-21T07:23:12;42.30;;;7.07;;
12665;SDS011;58531;59.050;17.416;2024-02-21T07:25:39;41.23;;;8.03;;
12665;SDS011;58531;59.050;17.416;2024-02-21T07:28:06;221.97;;;19.77;;
12665;SDS011;58531;59.050;17.416;2024-02-21T07:50:16;20.77;;;5.87;;
12665;SDS011;58531;59.050;17.416;2024-02-21T07:52:43;28.20;;;5.83;;
12665;SDS011;58531;59.050;17.416;2024-02-21T07:55:10;16.17;;;5.53;;
12665;SDS011;58531;59.050;17.416;2024-02-21T07:57:37;23.03;;;6.47;;
12665;SDS011;58531;59.050;17.416;2024-02-21T08:00:04;20.73;;;5.53;;
12665;SDS011;58531;59.050;17.416;2024-02-21T08:02:34;13.80;;;5.23;;
12665;SDS011;58531;59.050;17.416;2024-02-21T08:05:04;22.23;;;6.10;;
12665;SDS011;58531;59.050;17.416;2024-02-21T08:07:31;12.93;;;5.07;;
12665;SDS011;58531;59.050;17.416;2024-02-21T08:09:58;16.40;;;4.87;;
12665;SDS011;58531;59.050;17.416;2024-02-21T08:12:25;17.60;;;4.87;;
12665;SDS011;58531;59.050;17.416;2024-02-21T08:14:52;9.93;;;4.30;;
12665;SDS011;58531;59.050;17.416;2024-02-21T08:17:19;13.90;;;4.33;;
12665;SDS011;58531;59.050;17.416;2024-02-21T08:19:45;13.60;;;4.10;;
12665;SDS011;58531;59.050;17.416;2024-02-21T08:22:15;13.33;;;4.90;;
12665;SDS011;58531;59.050;17.416;2024-02-21T08:24:42;14.73;;;4.87;;
12665;SDS011;58531;59.050;17.416;2024-02-21T08:27:09;12.03;;;4.50;;
12665;SDS011;58531;59.050;17.416;2024-02-21T08:29:36;12.83;;;4.30;;
12665;SDS011;58531;59.050;17.416;2024-02-21T08:32:03;10.33;;;3.10;;
12665;SDS011;58531;59.050;17.416;2024-02-21T08:34:30;9.67;;;3.40;;
12665;SDS011;58531;59.050;17.416;2024-02-21T08:36:59;11.23;;;4.10;;
12665;SDS011;58531;59.050;17.416;2024-02-21T08:39:27;12.40;;;3.07;;
12665;SDS011;58531;59.050;17.416;2024-02-21T08:41:55;17.20;;;3.63;;
12665;SDS011;58531;59.050;17.416;2024-02-21T08:44:22;9.67;;;3.97;;
12665;SDS011;58531;59.050;17.416;2024-02-21T08:46:50;17.27;;;4.27;;
12665;SDS011;58531;59.050;17.416;2024-02-21T08:49:17;8.93;;;2.90;;
12665;SDS011;58531;59.050;17.416;2024-02-21T08:51:44;12.00;;;3.20;;
12665;SDS011;58531;59.050;17.416;2024-02-21T08:54:11;14.90;;;3.77;;
12665;SDS011;58531;59.050;17.416;2024-02-21T08:56:40;9.17;;;2.80;;
12665;SDS011;58531;59.050;17.416;2024-02-21T08:59:07;31.20;;;5.83;;
12665;SDS011;58531;59.050;17.416;2024-02-21T09:01:33;11.73;;;2.83;;
12665;SDS011;58531;59.050;17.416;2024-02-21T09:04:00;8.10;;;3.13;;
12665;SDS011;58531;59.050;17.416;2024-02-21T09:06:28;10.13;;;2.83;;
12665;SDS011;58531;59.050;17.416;2024-02-21T09:08:56;9.70;;;3.50;;
12665;SDS011;58531;59.050;17.416;2024-02-21T09:11:23;13.50;;;3.40;;
12665;SDS011;58531;59.050;17.416;2024-02-21T09:13:51;5.47;;;2.90;;
12665;SDS011;58531;59.050;17.416;2024-02-21T09:16:18;11.20;;;3.20;;
12665;SDS011;58531;59.050;17.416;2024-02-21T09:18:45;9.80;;;2.90;;
12665;SDS011;58531;59.050;17.416;2024-02-21T09:21:12;21.90;;;4.17;;
12665;SDS011;58531;59.050;17.416;2024-02-21T09:23:39;6.93;;;2.77;;
12665;SDS011;58531;59.050;17.416;2024-02-21T09:26:05;8.50;;;2.90;;
12665;SDS011;58531;59.050;17.416;2024-02-21T09:28:35;6.57;;;3.03;;
12665;SDS011;58531;59.050;17.416;2024-02-21T09:31:03;6.63;;;2.50;;
12665;SDS011;58531;59.050;17.416;2024-02-21T09:33:30;5.43;;;2.40;;
12665;SDS011;58531;59.050;17.416;2024-02-21T09:35:57;6.43;;;2.80;;
12665;SDS011;58531;59.050;17.416;2024-02-21T09:38:24;8.43;;;2.83;;
12665;SDS011;58531;59.050;17.416;2024-02-21T09:40:53;6.27;;;2.50;;
12665;SDS011;58531;59.050;17.416;2024-02-21T09:43:25;3.87;;;2.40;;
12665;SDS011;58531;59.050;17.416;2024-02-21T09:45:54;7.10;;;2.50;;
12665;SDS011;58531;59.050;17.416;2024-02-21T09:48:29;8.27;;;2.30;;
12665;SDS011;58531;59.050;17.416;2024-02-21T09:51:05;3.33;;;2.63;;
12665;SDS011;58531;59.050;17.416;2024-02-21T09:53:35;4.23;;;2.33;;
12665;SDS011;58531;59.050;17.416;2024-02-21T09:56:04;8.37;;;2.97;;
12665;SDS011;58531;59.050;17.416;2024-02-21T09:58:34;5.73;;;2.50;;
12665;SDS011;58531;59.050;17.416;2024-02-21T10:01:00;5.70;;;2.17;;
12665;SDS011;58531;59.050;17.416;2024-02-21T10:03:30;4.10;;;2.30;;
12665;SDS011;58531;59.050;17.416;2024-02-21T10:05:58;2.90;;;2.00;;
12665;SDS011;58531;59.050;17.416;2024-02-21T10:08:26;4.47;;;2.10;;
12665;SDS011;58531;59.050;17.416;2024-02-21T10:10:53;4.47;;;2.27;;
12665;SDS011;58531;59.050;17.416;2024-02-21T10:13:24;6.47;;;2.90;;
12665;SDS011;58531;59.050;17.416;2024-02-21T10:16:01;3.37;;;2.20;;
12665;SDS011;58531;59.050;17.416;2024-02-21T10:18:33;5.17;;;2.60;;
12665;SDS011;58531;59.050;17.416;2024-02-21T10:21:01;3.30;;;2.40;;
12665;SDS011;58531;59.050;17.416;2024-02-21T10:23:40;5.90;;;2.43;;
12665;SDS011;58531;59.050;17.416;2024-02-21T10:26:11;4.30;;;2.63;;
12665;SDS011;58531;59.050;17.416;2024-02-21T10:28:38;5.87;;;2.60;;
12665;SDS011;58531;59.050;17.416;2024-02-21T10:31:07;3.47;;;2.00;;
12665;SDS011;58531;59.050;17.416;2024-02-21T10:33:37;6.77;;;2.27;;
12665;SDS011;58531;59.050;17.416;2024-02-21T10:36:07;4.03;;;2.23;;
12665;SDS011;58531;59.050;17.416;2024-02-21T10:38:36;4.20;;;2.73;;
12665;SDS011;58531;59.050;17.416;2024-02-21T10:41:04;2.80;;;2.17;;
12665;SDS011;58531;59.050;17.416;2024-02-21T10:43:33;2.77;;;2.20;;
12665;SDS011;58531;59.050;17.416;2024-02-21T10:46:05;3.83;;;2.00;;
12665;SDS011;58531;59.050;17.416;2024-02-21T10:48:36;2.90;;;2.07;;
12665;SDS011;58531;59.050;17.416;2024-02-21T10:51:16;4.30;;;2.30;;
12665;SDS011;58531;59.050;17.416;2024-02-21T10:53:45;2.90;;;2.03;;
12665;SDS011;58531;59.050;17.416;2024-02-21T10:56:21;4.17;;;2.40;;
12665;SDS011;58531;59.050;17.416;2024-02-21T10:58:50;5.27;;;2.90;;
12665;SDS011;58531;59.050;17.416;2024-02-21T11:01:17;4.70;;;2.87;;
12665;SDS011;58531;59.050;17.416;2024-02-21T11:03:46;4.43;;;2.73;;
12665;SDS011;58531;59.050;17.416;2024-02-21T11:06:15;11.40;;;3.17;;
12665;SDS011;58531;59.050;17.416;2024-02-21T11:08:43;44.33;;;5.47;;
12665;SDS011;58531;59.050;17.416;2024-02-21T11:11:11;8.00;;;3.47;;
12665;SDS011;58531;59.050;17.416;2024-02-21T11:13:42;5.13;;;3.40;;
12665;SDS011;58531;59.050;17.416;2024-02-21T11:16:11;15.63;;;4.40;;
12665;SDS011;58531;59.050;17.416;2024-02-21T11:18:49;11.37;;;5.07;;
12665;SDS011;58531;59.050;17.416;2024-02-21T11:21:16;13.60;;;4.67;;
12665;SDS011;58531;59.050;17.416;2024-02-21T11:23:42;10.80;;;4.67;;
12665;SDS011;58531;59.050;17.416;2024-02-21T11:26:09;14.90;;;4.60;;
12665;SDS011;58531;59.050;17.416;2024-02-21T11:28:55;16.77;;;5.10;;
12665;SDS011;58531;59.050;17.416;2024-02-21T11:31:22;29.90;;;5.60;;
12665;SDS011;58531;59.050;17.416;2024-02-21T11:33:51;13.73;;;4.83;;
12665;SDS011;58531;59.050;17.416;2024-02-21T11:36:23;5.03;;;4.00;;
12665;SDS011;58531;59.050;17.416;2024-02-21T11:38:51;8.70;;;3.80;;
12665;SDS011;58531;59.050;17.416;2024-02-21T11:41:18;12.70;;;3.87;;
12665;SDS011;58531;59.050;17.416;2024-02-21T11:43:46;16.40;;;4.50;;
12665;SDS011;58531;59.050;17.416;2024-02-21T11:46:16;13.47;;;4.10;;
12665;SDS011;58531;59.050;17.416;2024-02-21T11:48:46;19.40;;;4.73;;
12665;SDS011;58531;59.050;17.416;2024-02-21T11:51:24;7.43;;;4.30;;
12665;SDS011;58531;59.050;17.416;2024-02-21T11:53:52;7.40;;;3.27;;
12665;SDS011;58531;59.050;17.416;2024-02-21T11:56:19;13.70;;;4.10;;
12665;SDS011;58531;59.050;17.416;2024-02-21T11:58:47;37.20;;;5.80;;
12665;SDS011;58531;59.050;17.416;2024-02-21T12:01:14;32.13;;;6.77;;
12665;SDS011;58531;59.050;17.416;2024-02-21T12:03:42;21.17;;;4.27;;
12665;SDS011;58531;59.050;17.416;2024-02-21T12:06:15;3.87;;;3.50;;
12665;SDS011;58531;59.050;17.416;2024-02-21T12:08:46;8.43;;;4.10;;
12665;SDS011;58531;59.050;17.416;2024-02-21T12:11:18;30.67;;;5.67;;
12665;SDS011;58531;59.050;17.416;2024-02-21T12:13:58;13.00;;;4.13;;
12665;SDS011;58531;59.050;17.416;2024-02-21T12:16:26;4.13;;;3.30;;
12665;SDS011;58531;59.050;17.416;2024-02-21T12:18:54;5.33;;;3.40;;
12665;SDS011;58531;59.050;17.416;2024-02-21T12:21:23;6.13;;;3.67;;
12665;SDS011;58531;59.050;17.416;2024-02-21T12:23:52;4.83;;;3.63;;
12665;SDS011;58531;59.050;17.416;2024-02-21T12:26:19;7.13;;;3.43;;
12665;SDS011;58531;59.050;17.416;2024-02-21T12:28:46;5.83;;;3.27;;
12665;SDS011;58531;59.050;17.416;2024-02-21T12:31:13;7.47;;;3.80;;
12665;SDS011;58531;59.050;17.416;2024-02-21T12:33:41;11.97;;;4.97;;
12665;SDS011;58531;59.050;17.416;2024-02-21T12:36:08;4.67;;;3.57;;
12665;SDS011;58531;59.050;17.416;2024-02-21T12:38:37;14.50;;;4.27;;
12665;SDS011;58531;59.050;17.416;2024-02-21T12:41:06;195.30;;;18.87;;
12665;SDS011;58531;59.050;17.416;2024-02-21T12:43:32;15.17;;;4.93;;
12665;SDS011;58531;59.050;17.416;2024-02-21T12:46:00;4.30;;;3.60;;
12665;SDS011;58531;59.050;17.416;2024-02-21T12:48:26;8.37;;;4.13;;
12665;SDS011;58531;59.050;17.416;2024-02-21T12:50:54;31.53;;;6.13;;
12665;SDS011;58531;59.050;17.416;2024-02-21T12:53:20;26.90;;;6.00;;
12665;SDS011;58531;59.050;17.416;2024-02-21T12:55:48;18.07;;;5.20;;
12665;SDS011;58531;59.050;17.416;2024-02-21T12:58:16;11.90;;;5.00;;
12665;SDS011;58531;59.050;17.416;2024-02-21T13:00:43;52.27;;;8.13;;
12665;SDS011;58531;59.050;17.416;2024-02-21T13:03:11;10.03;;;5.07;;
12665;SDS011;58531;59.050;17.416;2024-02-21T13:05:37;35.67;;;6.00;;
12665;SDS011;58531;59.050;17.416;2024-02-21T13:08:05;42.60;;;7.67;;
12665;SDS011;58531;59.050;17.416;2024-02-21T13:10:32;14.87;;;4.50;;
12665;SDS011;58531;59.050;17.416;2024-02-21T13:12:59;236.20;;;16.50;;
12665;SDS011;58531;59.050;17.416;2024-02-21T13:15:28;60.57;;;9.87;;
12665;SDS011;58531;59.050;17.416;2024-02-21T13:17:55;42.63;;;7.67;;
12665;SDS011;58531;59.050;17.416;2024-02-21T13:20:23;46.37;;;7.97;;
12665;SDS011;58531;59.050;17.416;2024-02-21T13:22:50;83.93;;;13.13;;
12665;SDS011;58531;59.050;17.416;2024-02-21T13:25:16;26.80;;;6.63;;
12665;SDS011;58531;59.050;17.416;2024-02-21T13:27:46;273.27;;;18.10;;
12665;SDS011;58531;59.050;17.416;2024-02-21T13:30:13;42.40;;;7.17;;
12665;SDS011;58531;59.050;17.416;2024-02-21T13:32:44;63.43;;;6.47;;
12665;SDS011;58531;59.050;17.416;2024-02-21T13:35:12;46.53;;;7.07;;
12665;SDS011;58531;59.050;17.416;2024-02-21T13:37:39;29.80;;;5.53;;
12665;SDS011;58531;59.050;17.416;2024-02-21T13:40:07;42.43;;;7.43;;
12665;SDS011;58531;59.050;17.416;2024-02-21T13:42:35;45.70;;;7.00;;
12665;SDS011;58531;59.050;17.416;2024-02-21T13:45:02;24.93;;;5.60;;
12665;SDS011;58531;59.050;17.416;2024-02-21T13:47:30;86.97;;;9.30;;
12665;SDS011;58531;59.050;17.416;2024-02-21T13:49:59;17.53;;;4.47;;
12665;SDS011;58531;59.050;17.416;2024-02-21T13:52:26;55.57;;;6.60;;
12665;SDS011;58531;59.050;17.416;2024-02-21T13:54:52;57.47;;;5.90;;
12665;SDS011;58531;59.050;17.416;2024-02-21T13:57:19;27.73;;;4.77;;
12665;SDS011;58531;59.050;17.416;2024-02-21T13:59:46;35.57;;;6.60;;
12665;SDS011;58531;59.050;17.416;2024-02-21T14:02:13;36.17;;;6.17;;
12665;SDS011;58531;59.050;17.416;2024-02-21T14:04:40;50.53;;;8.57;;
12665;SDS011;58531;59.050;17.416;2024-02-21T14:07:09;72.63;;;7.30;;
12665;SDS011;58531;59.050;17.416;2024-02-21T14:09:36;67.53;;;6.67;;
12665;SDS011;58531;59.050;17.416;2024-02-21T14:12:03;38.43;;;6.40;;
12665;SDS011;58531;59.050;17.416;2024-02-21T14:14:33;79.70;;;6.97;;
12665;SDS011;58531;59.050;17.416;2024-02-21T14:17:00;25.73;;;5.47;;
12665;SDS011;58531;59.050;17.416;2024-02-21T14:19:27;76.10;;;9.70;;
12665;SDS011;58531;59.050;17.416;2024-02-21T14:21:54;50.67;;;6.70;;
12665;SDS011;58531;59.050;17.416;2024-02-21T14:24:23;25.27;;;4.30;;
12665;SDS011;58531;59.050;17.416;2024-02-21T14:26:50;90.87;;;9.77;;
12665;SDS011;58531;59.050;17.416;2024-02-21T14:29:17;75.87;;;8.60;;
12665;SDS011;58531;59.050;17.416;2024-02-21T14:31:43;41.87;;;6.50;;
12665;SDS011;58531;59.050;17.416;2024-02-21T14:34:10;21.10;;;5.60;;
12665;SDS011;58531;59.050;17.416;2024-02-21T14:36:37;35.03;;;5.83;;
12665;SDS011;58531;59.050;17.416;2024-02-21T14:39:05;65.67;;;8.33;;
12665;SDS011;58531;59.050;17.416;2024-02-21T14:41:34;41.67;;;5.10;;
12665;SDS011;58531;59.050;17.416;2024-02-21T14:44:01;12.27;;;3.77;;
12665;SDS011;58531;59.050;17.416;2024-02-21T14:46:28;93.50;;;10.33;;